Garfield, Ohio
Current Conditions -  °F | °C
As of 2:53 PM on Wednesday 17 Dec 2014 (Local Time) from KBKL Reporting Station
Overcast Overcast  
Wind Chill: 21°   Ceiling: 2300
Heat Index: 33°   Visibility: 10mi
Dew Point: 25°   Wind: 21mph
Humidity: 72%   Direction: 250°WSW
Pressure: 30.08"   Gusts: NA
Location:  41.4062°N, 81.6149°W
Report Text: KBKL 171953Z 25018KT 10SM OVC023 01/M04 A3008 RMK AO2 PK WND 27027/1910 SLP191 T00061039
Loading
Personal Weather Stations






























Interactive Weather Map New forecast layout! Learn more

10-Day Weather Forecast

Advertisements
Track Severe Weather on mobile